sensor_id;sensor_type;location;lat;lon;timestamp;P1;durP1;ratioP1;P2;durP2;ratioP2
58553;SDS011;48119;53.218;6.576;2023-04-25T00:00:38;13.45;;;4.90;;
58553;SDS011;48119;53.218;6.576;2023-04-25T00:03:04;18.33;;;5.90;;
58553;SDS011;48119;53.218;6.576;2023-04-25T00:05:33;18.20;;;5.10;;
58553;SDS011;48119;53.218;6.576;2023-04-25T00:08:01;20.15;;;5.55;;
58553;SDS011;48119;53.218;6.576;2023-04-25T00:10:27;17.70;;;5.43;;
58553;SDS011;48119;53.218;6.576;2023-04-25T00:12:56;26.30;;;4.40;;
58553;SDS011;48119;53.218;6.576;2023-04-25T00:15:22;14.68;;;4.97;;
58553;SDS011;48119;53.218;6.576;2023-04-25T00:17:49;13.48;;;4.18;;
58553;SDS011;48119;53.218;6.576;2023-04-25T00:20:17;16.92;;;4.30;;
58553;SDS011;48119;53.218;6.576;2023-04-25T00:22:43;13.25;;;4.82;;
58553;SDS011;48119;53.218;6.576;2023-04-25T00:25:09;19.52;;;4.65;;
58553;SDS011;48119;53.218;6.576;2023-04-25T00:27:35;15.95;;;4.70;;
58553;SDS011;48119;53.218;6.576;2023-04-25T00:30:01;19.58;;;6.05;;
58553;SDS011;48119;53.218;6.576;2023-04-25T00:32:28;14.57;;;4.05;;
58553;SDS011;48119;53.218;6.576;2023-04-25T00:34:56;16.10;;;4.55;;
58553;SDS011;48119;53.218;6.576;2023-04-25T00:37:25;11.25;;;3.35;;
58553;SDS011;48119;53.218;6.576;2023-04-25T00:39:51;13.52;;;3.40;;
58553;SDS011;48119;53.218;6.576;2023-04-25T00:42:18;16.48;;;3.65;;
58553;SDS011;48119;53.218;6.576;2023-04-25T00:44:44;13.55;;;3.65;;
58553;SDS011;48119;53.218;6.576;2023-04-25T00:47:13;14.70;;;3.42;;
58553;SDS011;48119;53.218;6.576;2023-04-25T00:49:40;11.93;;;3.53;;
58553;SDS011;48119;53.218;6.576;2023-04-25T00:52:06;14.85;;;3.85;;
58553;SDS011;48119;53.218;6.576;2023-04-25T00:54:32;10.52;;;2.95;;
58553;SDS011;48119;53.218;6.576;2023-04-25T00:56:58;16.95;;;3.30;;
58553;SDS011;48119;53.218;6.576;2023-04-25T00:59:25;10.95;;;3.08;;
58553;SDS011;48119;53.218;6.576;2023-04-25T01:01:53;11.25;;;3.90;;
58553;SDS011;48119;53.218;6.576;2023-04-25T01:04:21;14.60;;;3.30;;
58553;SDS011;48119;53.218;6.576;2023-04-25T01:06:47;11.85;;;3.67;;
58553;SDS011;48119;53.218;6.576;2023-04-25T01:09:13;11.20;;;2.80;;
58553;SDS011;48119;53.218;6.576;2023-04-25T01:11:39;13.27;;;2.75;;
58553;SDS011;48119;53.218;6.576;2023-04-25T01:14:05;8.63;;;2.53;;
58553;SDS011;48119;53.218;6.576;2023-04-25T01:16:31;12.15;;;3.45;;
58553;SDS011;48119;53.218;6.576;2023-04-25T01:18:58;10.70;;;3.08;;
58553;SDS011;48119;53.218;6.576;2023-04-25T01:21:24;13.05;;;3.10;;
58553;SDS011;48119;53.218;6.576;2023-04-25T01:23:53;11.20;;;3.40;;
58553;SDS011;48119;53.218;6.576;2023-04-25T01:26:20;15.27;;;4.05;;
58553;SDS011;48119;53.218;6.576;2023-04-25T01:28:55;12.35;;;3.25;;
58553;SDS011;48119;53.218;6.576;2023-04-25T01:31:21;10.27;;;2.50;;
58553;SDS011;48119;53.218;6.576;2023-04-25T01:33:51;14.38;;;3.42;;
58553;SDS011;48119;53.218;6.576;2023-04-25T01:36:19;11.40;;;3.20;;
58553;SDS011;48119;53.218;6.576;2023-04-25T01:38:46;10.13;;;2.85;;
58553;SDS011;48119;53.218;6.576;2023-04-25T01:41:13;11.13;;;2.72;;
58553;SDS011;48119;53.218;6.576;2023-04-25T01:43:39;13.15;;;3.42;;
58553;SDS011;48119;53.218;6.576;2023-04-25T01:46:08;10.52;;;2.78;;
58553;SDS011;48119;53.218;6.576;2023-04-25T01:48:36;12.20;;;2.90;;
58553;SDS011;48119;53.218;6.576;2023-04-25T01:51:01;13.13;;;3.75;;
58553;SDS011;48119;53.218;6.576;2023-04-25T01:53:31;19.33;;;3.70;;
58553;SDS011;48119;53.218;6.576;2023-04-25T01:55:56;10.50;;;2.83;;
58553;SDS011;48119;53.218;6.576;2023-04-25T01:58:22;14.35;;;3.78;;
58553;SDS011;48119;53.218;6.576;2023-04-25T02:00:48;12.35;;;3.15;;
58553;SDS011;48119;53.218;6.576;2023-04-25T02:03:16;12.23;;;3.97;;
58553;SDS011;48119;53.218;6.576;2023-04-25T02:05:42;12.13;;;3.20;;
58553;SDS011;48119;53.218;6.576;2023-04-25T02:08:08;12.77;;;4.00;;
58553;SDS011;48119;53.218;6.576;2023-04-25T02:10:35;16.40;;;3.83;;
58553;SDS011;48119;53.218;6.576;2023-04-25T02:13:01;18.08;;;4.30;;
58553;SDS011;48119;53.218;6.576;2023-04-25T02:15:27;15.85;;;4.05;;
58553;SDS011;48119;53.218;6.576;2023-04-25T02:17:53;13.93;;;3.50;;
58553;SDS011;48119;53.218;6.576;2023-04-25T02:20:23;10.98;;;3.20;;
58553;SDS011;48119;53.218;6.576;2023-04-25T02:22:49;10.48;;;3.83;;
58553;SDS011;48119;53.218;6.576;2023-04-25T02:25:16;15.23;;;3.75;;
58553;SDS011;48119;53.218;6.576;2023-04-25T02:27:44;10.45;;;3.45;;
58553;SDS011;48119;53.218;6.576;2023-04-25T02:30:13;13.70;;;3.05;;
58553;SDS011;48119;53.218;6.576;2023-04-25T02:32:41;11.70;;;2.58;;
58553;SDS011;48119;53.218;6.576;2023-04-25T02:35:07;12.95;;;3.85;;
58553;SDS011;48119;53.218;6.576;2023-04-25T02:37:34;13.05;;;3.20;;
58553;SDS011;48119;53.218;6.576;2023-04-25T02:40:01;11.82;;;3.72;;
58553;SDS011;48119;53.218;6.576;2023-04-25T02:42:30;9.93;;;3.15;;
58553;SDS011;48119;53.218;6.576;2023-04-25T02:44:56;10.45;;;2.28;;
58553;SDS011;48119;53.218;6.576;2023-04-25T02:47:22;16.10;;;4.03;;
58553;SDS011;48119;53.218;6.576;2023-04-25T02:49:48;14.23;;;2.90;;
58553;SDS011;48119;53.218;6.576;2023-04-25T02:52:14;10.68;;;3.10;;
58553;SDS011;48119;53.218;6.576;2023-04-25T02:54:42;10.25;;;3.17;;
58553;SDS011;48119;53.218;6.576;2023-04-25T02:57:08;14.07;;;3.88;;
58553;SDS011;48119;53.218;6.576;2023-04-25T02:59:34;10.15;;;2.53;;
58553;SDS011;48119;53.218;6.576;2023-04-25T03:02:00;8.98;;;2.95;;
58553;SDS011;48119;53.218;6.576;2023-04-25T03:04:29;9.70;;;2.83;;
58553;SDS011;48119;53.218;6.576;2023-04-25T03:06:54;9.82;;;2.90;;
58553;SDS011;48119;53.218;6.576;2023-04-25T03:09:20;13.00;;;3.03;;
58553;SDS011;48119;53.218;6.576;2023-04-25T03:11:49;11.50;;;2.55;;
58553;SDS011;48119;53.218;6.576;2023-04-25T03:14:17;7.68;;;2.30;;
58553;SDS011;48119;53.218;6.576;2023-04-25T03:16:43;9.60;;;2.30;;
58553;SDS011;48119;53.218;6.576;2023-04-25T03:19:12;10.98;;;2.47;;
58553;SDS011;48119;53.218;6.576;2023-04-25T03:21:41;9.25;;;2.08;;
58553;SDS011;48119;53.218;6.576;2023-04-25T03:24:09;8.23;;;2.33;;
58553;SDS011;48119;53.218;6.576;2023-04-25T03:26:36;11.02;;;2.40;;
58553;SDS011;48119;53.218;6.576;2023-04-25T03:29:04;13.10;;;2.58;;
58553;SDS011;48119;53.218;6.576;2023-04-25T03:31:30;15.38;;;2.80;;
58553;SDS011;48119;53.218;6.576;2023-04-25T03:33:56;18.70;;;3.08;;
58553;SDS011;48119;53.218;6.576;2023-04-25T03:36:22;9.90;;;2.53;;
58553;SDS011;48119;53.218;6.576;2023-04-25T03:38:48;9.15;;;2.17;;
58553;SDS011;48119;53.218;6.576;2023-04-25T03:41:14;16.88;;;2.85;;
58553;SDS011;48119;53.218;6.576;2023-04-25T03:43:40;9.98;;;2.30;;
58553;SDS011;48119;53.218;6.576;2023-04-25T03:46:05;9.25;;;2.58;;
58553;SDS011;48119;53.218;6.576;2023-04-25T03:48:31;12.73;;;2.90;;
58553;SDS011;48119;53.218;6.576;2023-04-25T03:50:57;11.48;;;3.08;;
58553;SDS011;48119;53.218;6.576;2023-04-25T03:53:23;11.60;;;2.45;;
58553;SDS011;48119;53.218;6.576;2023-04-25T03:55:49;14.68;;;3.25;;
58553;SDS011;48119;53.218;6.576;2023-04-25T03:58:15;9.15;;;3.30;;
58553;SDS011;48119;53.218;6.576;2023-04-25T04:00:40;10.93;;;3.10;;
58553;SDS011;48119;53.218;6.576;2023-04-25T04:03:06;14.27;;;3.35;;
58553;SDS011;48119;53.218;6.576;2023-04-25T04:05:32;11.13;;;2.63;;
58553;SDS011;48119;53.218;6.576;2023-04-25T04:07:58;14.13;;;2.80;;
58553;SDS011;48119;53.218;6.576;2023-04-25T04:10:26;14.00;;;2.83;;
58553;SDS011;48119;53.218;6.576;2023-04-25T04:12:54;10.15;;;2.55;;
58553;SDS011;48119;53.218;6.576;2023-04-25T04:15:20;23.80;;;3.03;;
58553;SDS011;48119;53.218;6.576;2023-04-25T04:17:47;14.18;;;3.20;;
58553;SDS011;48119;53.218;6.576;2023-04-25T04:20:13;12.73;;;3.42;;
58553;SDS011;48119;53.218;6.576;2023-04-25T04:22:39;8.50;;;2.65;;
58553;SDS011;48119;53.218;6.576;2023-04-25T04:25:05;10.48;;;2.38;;
58553;SDS011;48119;53.218;6.576;2023-04-25T04:27:31;12.35;;;3.15;;
58553;SDS011;48119;53.218;6.576;2023-04-25T04:29:57;10.38;;;3.20;;
58553;SDS011;48119;53.218;6.576;2023-04-25T04:32:23;9.10;;;2.40;;
58553;SDS011;48119;53.218;6.576;2023-04-25T04:34:50;8.00;;;2.58;;
58553;SDS011;48119;53.218;6.576;2023-04-25T04:37:17;14.05;;;3.15;;
58553;SDS011;48119;53.218;6.576;2023-04-25T04:39:43;11.73;;;2.85;;
58553;SDS011;48119;53.218;6.576;2023-04-25T04:42:09;12.82;;;2.58;;
58553;SDS011;48119;53.218;6.576;2023-04-25T04:44:36;14.52;;;3.50;;
58553;SDS011;48119;53.218;6.576;2023-04-25T04:47:04;8.77;;;2.63;;
58553;SDS011;48119;53.218;6.576;2023-04-25T04:49:31;11.07;;;2.58;;
58553;SDS011;48119;53.218;6.576;2023-04-25T04:51:59;11.25;;;2.85;;
58553;SDS011;48119;53.218;6.576;2023-04-25T04:54:28;11.88;;;2.45;;
58553;SDS011;48119;53.218;6.576;2023-04-25T04:56:54;9.68;;;2.65;;
58553;SDS011;48119;53.218;6.576;2023-04-25T04:59:20;14.55;;;2.80;;
58553;SDS011;48119;53.218;6.576;2023-04-25T05:01:46;12.05;;;2.35;;
58553;SDS011;48119;53.218;6.576;2023-04-25T05:04:27;20.70;;;3.10;;
58553;SDS011;48119;53.218;6.576;2023-04-25T05:06:56;9.70;;;2.30;;
58553;SDS011;48119;53.218;6.576;2023-04-25T05:09:22;5.90;;;2.10;;
58553;SDS011;48119;53.218;6.576;2023-04-25T05:11:51;6.10;;;1.90;;
58553;SDS011;48119;53.218;6.576;2023-04-25T05:14:17;6.78;;;2.03;;
58553;SDS011;48119;53.218;6.576;2023-04-25T05:16:43;5.30;;;1.63;;
58553;SDS011;48119;53.218;6.576;2023-04-25T05:19:09;6.05;;;1.80;;
58553;SDS011;48119;53.218;6.576;2023-04-25T05:21:35;5.85;;;1.20;;
58553;SDS011;48119;53.218;6.576;2023-04-25T05:24:01;4.50;;;1.48;;
58553;SDS011;48119;53.218;6.576;2023-04-25T05:26:27;4.85;;;1.30;;
58553;SDS011;48119;53.218;6.576;2023-04-25T05:28:58;4.35;;;1.17;;
58553;SDS011;48119;53.218;6.576;2023-04-25T05:31:27;4.93;;;1.17;;
58553;SDS011;48119;53.218;6.576;2023-04-25T05:33:53;3.63;;;1.30;;
58553;SDS011;48119;53.218;6.576;2023-04-25T05:36:19;5.95;;;1.40;;
58553;SDS011;48119;53.218;6.576;2023-04-25T05:38:47;7.20;;;1.70;;
58553;SDS011;48119;53.218;6.576;2023-04-25T05:41:13;6.65;;;1.60;;
58553;SDS011;48119;53.218;6.576;2023-04-25T05:43:39;10.38;;;2.78;;
58553;SDS011;48119;53.218;6.576;2023-04-25T05:46:10;5.68;;;1.60;;
58553;SDS011;48119;53.218;6.576;2023-04-25T05:48:37;5.78;;;1.40;;
58553;SDS011;48119;53.218;6.576;2023-04-25T05:51:03;8.13;;;1.95;;
58553;SDS011;48119;53.218;6.576;2023-04-25T05:53:29;18.25;;;2.35;;
58553;SDS011;48119;53.218;6.576;2023-04-25T05:55:55;7.60;;;1.90;;
58553;SDS011;48119;53.218;6.576;2023-04-25T05:58:20;4.93;;;1.98;;
58553;SDS011;48119;53.218;6.576;2023-04-25T06:00:46;8.02;;;1.83;;
58553;SDS011;48119;53.218;6.576;2023-04-25T06:03:12;5.65;;;1.90;;
58553;SDS011;48119;53.218;6.576;2023-04-25T06:05:43;7.57;;;2.17;;
58553;SDS011;48119;53.218;6.576;2023-04-25T06:08:09;6.93;;;1.75;;
58553;SDS011;48119;53.218;6.576;2023-04-25T06:10:35;8.00;;;2.63;;
58553;SDS011;48119;53.218;6.576;2023-04-25T06:13:02;7.68;;;1.85;;
58553;SDS011;48119;53.218;6.576;2023-04-25T06:15:29;12.35;;;2.75;;
58553;SDS011;48119;53.218;6.576;2023-04-25T06:17:55;4.55;;;1.52;;
58553;SDS011;48119;53.218;6.576;2023-04-25T06:20:21;10.63;;;3.20;;
58553;SDS011;48119;53.218;6.576;2023-04-25T06:22:49;4.68;;;1.73;;
58553;SDS011;48119;53.218;6.576;2023-04-25T06:25:17;10.60;;;2.15;;
58553;SDS011;48119;53.218;6.576;2023-04-25T06:27:43;6.95;;;1.70;;
58553;SDS011;48119;53.218;6.576;2023-04-25T06:30:09;9.18;;;1.92;;
58553;SDS011;48119;53.218;6.576;2023-04-25T06:32:37;11.18;;;2.55;;
58553;SDS011;48119;53.218;6.576;2023-04-25T06:35:03;6.15;;;1.83;;
58553;SDS011;48119;53.218;6.576;2023-04-25T06:37:30;8.15;;;2.00;;
58553;SDS011;48119;53.218;6.576;2023-04-25T06:39:56;7.82;;;1.80;;
58553;SDS011;48119;53.218;6.576;2023-04-25T06:42:22;9.05;;;1.80;;
58553;SDS011;48119;53.218;6.576;2023-04-25T06:44:47;8.00;;;1.85;;
58553;SDS011;48119;53.218;6.576;2023-04-25T06:47:14;8.00;;;2.30;;
58553;SDS011;48119;53.218;6.576;2023-04-25T06:49:41;10.73;;;2.33;;
58553;SDS011;48119;53.218;6.576;2023-04-25T06:52:07;8.57;;;1.75;;
58553;SDS011;48119;53.218;6.576;2023-04-25T06:54:33;8.80;;;2.05;;
58553;SDS011;48119;53.218;6.576;2023-04-25T06:56:59;8.05;;;2.05;;
58553;SDS011;48119;53.218;6.576;2023-04-25T06:59:26;10.88;;;2.72;;
58553;SDS011;48119;53.218;6.576;2023-04-25T07:01:52;11.70;;;2.45;;
58553;SDS011;48119;53.218;6.576;2023-04-25T07:04:18;6.72;;;2.63;;
58553;SDS011;48119;53.218;6.576;2023-04-25T07:06:44;7.18;;;1.95;;
58553;SDS011;48119;53.218;6.576;2023-04-25T07:09:13;5.15;;;1.58;;
58553;SDS011;48119;53.218;6.576;2023-04-25T07:11:39;9.95;;;2.20;;
58553;SDS011;48119;53.218;6.576;2023-04-25T07:14:05;5.90;;;1.38;;
58553;SDS011;48119;53.218;6.576;2023-04-25T07:16:31;5.28;;;1.75;;
58553;SDS011;48119;53.218;6.576;2023-04-25T07:18:56;6.93;;;1.45;;
58553;SDS011;48119;53.218;6.576;2023-04-25T07:21:22;5.50;;;1.25;;
58553;SDS011;48119;53.218;6.576;2023-04-25T07:23:48;2.78;;;1.02;;
58553;SDS011;48119;53.218;6.576;2023-04-25T07:26:14;4.85;;;1.58;;
58553;SDS011;48119;53.218;6.576;2023-04-25T07:28:42;3.65;;;1.40;;
58553;SDS011;48119;53.218;6.576;2023-04-25T07:31:08;5.03;;;1.63;;
58553;SDS011;48119;53.218;6.576;2023-04-25T07:33:34;3.83;;;1.20;;
58553;SDS011;48119;53.218;6.576;2023-04-25T07:36:00;6.63;;;1.55;;
58553;SDS011;48119;53.218;6.576;2023-04-25T07:38:26;7.35;;;1.48;;
58553;SDS011;48119;53.218;6.576;2023-04-25T07:40:52;9.77;;;1.50;;
58553;SDS011;48119;53.218;6.576;2023-04-25T07:43:18;7.63;;;2.03;;
58553;SDS011;48119;53.218;6.576;2023-04-25T07:45:44;11.57;;;1.63;;
58553;SDS011;48119;53.218;6.576;2023-04-25T07:48:11;16.05;;;2.05;;
58553;SDS011;48119;53.218;6.576;2023-04-25T07:50:42;8.93;;;1.73;;
58553;SDS011;48119;53.218;6.576;2023-04-25T07:53:08;8.88;;;2.00;;
58553;SDS011;48119;53.218;6.576;2023-04-25T07:55:33;6.00;;;1.40;;
58553;SDS011;48119;53.218;6.576;2023-04-25T07:58:10;5.15;;;1.35;;
58553;SDS011;48119;53.218;6.576;2023-04-25T08:00:37;6.80;;;1.77;;
58553;SDS011;48119;53.218;6.576;2023-04-25T08:03:03;6.97;;;1.95;;
58553;SDS011;48119;53.218;6.576;2023-04-25T08:05:29;7.40;;;1.42;;
58553;SDS011;48119;53.218;6.576;2023-04-25T08:07:54;3.70;;;1.30;;
58553;SDS011;48119;53.218;6.576;2023-04-25T08:10:22;7.20;;;1.67;;
58553;SDS011;48119;53.218;6.576;2023-04-25T08:12:51;7.63;;;1.38;;
58553;SDS011;48119;53.218;6.576;2023-04-25T08:15:16;5.25;;;1.27;;
58553;SDS011;48119;53.218;6.576;2023-04-25T08:17:42;8.40;;;1.75;;
58553;SDS011;48119;53.218;6.576;2023-04-25T08:20:09;3.08;;;1.13;;
58553;SDS011;48119;53.218;6.576;2023-04-25T08:22:35;5.45;;;0.98;;
58553;SDS011;48119;53.218;6.576;2023-04-25T08:25:02;1.10;;;0.60;;
58553;SDS011;48119;53.218;6.576;2023-04-25T08:27:28;6.95;;;1.00;;
58553;SDS011;48119;53.218;6.576;2023-04-25T08:29:54;1.65;;;0.70;;
58553;SDS011;48119;53.218;6.576;2023-04-25T08:32:19;3.28;;;1.27;;
58553;SDS011;48119;53.218;6.576;2023-04-25T08:34:46;5.72;;;1.40;;
58553;SDS011;48119;53.218;6.576;2023-04-25T08:37:12;4.45;;;1.02;;
58553;SDS011;48119;53.218;6.576;2023-04-25T08:39:38;2.00;;;0.75;;
58553;SDS011;48119;53.218;6.576;2023-04-25T08:42:05;5.60;;;1.33;;
58553;SDS011;48119;53.218;6.576;2023-04-25T08:44:35;2.40;;;1.10;;
58553;SDS011;48119;53.218;6.576;2023-04-25T08:47:02;4.57;;;1.10;;
58553;SDS011;48119;53.218;6.576;2023-04-25T08:49:33;8.00;;;1.55;;
58553;SDS011;48119;53.218;6.576;2023-04-25T08:52:00;4.38;;;0.95;;
58553;SDS011;48119;53.218;6.576;2023-04-25T08:54:27;3.78;;;1.00;;
58553;SDS011;48119;53.218;6.576;2023-04-25T08:56:56;5.90;;;1.48;;
58553;SDS011;48119;53.218;6.576;2023-04-25T08:59:23;6.88;;;1.85;;
58553;SDS011;48119;53.218;6.576;2023-04-25T09:01:49;8.30;;;1.58;;
58553;SDS011;48119;53.218;6.576;2023-04-25T09:04:16;6.78;;;1.55;;
58553;SDS011;48119;53.218;6.576;2023-04-25T09:06:45;4.60;;;1.70;;
58553;SDS011;48119;53.218;6.576;2023-04-25T09:09:11;14.23;;;2.10;;
58553;SDS011;48119;53.218;6.576;2023-04-25T09:11:40;4.70;;;1.60;;
58553;SDS011;48119;53.218;6.576;2023-04-25T09:14:12;7.32;;;1.65;;
58553;SDS011;48119;53.218;6.576;2023-04-25T09:19:36;8.23;;;1.30;;
58553;SDS011;48119;53.218;6.576;2023-04-25T09:22:05;5.20;;;1.33;;
58553;SDS011;48119;53.218;6.576;2023-04-25T09:27:04;9.40;;;2.20;;
58553;SDS011;48119;53.218;6.576;2023-04-25T09:29:35;9.05;;;2.15;;
58553;SDS011;48119;53.218;6.576;2023-04-25T09:32:22;11.13;;;1.90;;
58553;SDS011;48119;53.218;6.576;2023-04-25T09:34:49;8.48;;;2.25;;
58553;SDS011;48119;53.218;6.576;2023-04-25T09:37:26;8.43;;;2.33;;
58553;SDS011;48119;53.218;6.576;2023-04-25T09:42:23;7.85;;;1.75;;
58553;SDS011;48119;53.218;6.576;2023-04-25T09:44:54;4.40;;;1.77;;
58553;SDS011;48119;53.218;6.576;2023-04-25T09:47:22;9.38;;;2.00;;
58553;SDS011;48119;53.218;6.576;2023-04-25T09:49:49;10.57;;;1.85;;
58553;SDS011;48119;53.218;6.576;2023-04-25T09:52:22;6.97;;;2.55;;
58553;SDS011;48119;53.218;6.576;2023-04-25T09:54:51;6.20;;;1.60;;
58553;SDS011;48119;53.218;6.576;2023-04-25T09:57:18;10.02;;;1.60;;
58553;SDS011;48119;53.218;6.576;2023-04-25T09:59:46;8.45;;;2.15;;
58553;SDS011;48119;53.218;6.576;2023-04-25T10:02:14;5.85;;;1.77;;
58553;SDS011;48119;53.218;6.576;2023-04-25T10:04:50;8.07;;;2.20;;
58553;SDS011;48119;53.218;6.576;2023-04-25T10:07:19;11.93;;;2.30;;
58553;SDS011;48119;53.218;6.576;2023-04-25T10:09:48;10.45;;;2.65;;
58553;SDS011;48119;53.218;6.576;2023-04-25T10:12:17;11.88;;;1.98;;
58553;SDS011;48119;53.218;6.576;2023-04-25T10:14:43;6.93;;;2.17;;
58553;SDS011;48119;53.218;6.576;2023-04-25T10:17:10;5.88;;;1.55;;
58553;SDS011;48119;53.218;6.576;2023-04-25T10:19:36;6.25;;;2.25;;
58553;SDS011;48119;53.218;6.576;2023-04-25T10:22:07;5.85;;;1.90;;
58553;SDS011;48119;53.218;6.576;2023-04-25T10:24:45;5.55;;;1.50;;
58553;SDS011;48119;53.218;6.576;2023-04-25T10:27:12;9.35;;;2.20;;
58553;SDS011;48119;53.218;6.576;2023-04-25T10:29:38;7.75;;;2.05;;
58553;SDS011;48119;53.218;6.576;2023-04-25T10:32:07;6.97;;;1.58;;
58553;SDS011;48119;53.218;6.576;2023-04-25T10:37:08;7.53;;;2.10;;
58553;SDS011;48119;53.218;6.576;2023-04-25T10:39:36;6.30;;;1.75;;
58553;SDS011;48119;53.218;6.576;2023-04-25T10:42:04;10.15;;;2.42;;
58553;SDS011;48119;53.218;6.576;2023-04-25T10:44:31;7.32;;;2.03;;
58553;SDS011;48119;53.218;6.576;2023-04-25T10:47:01;10.35;;;1.98;;
58553;SDS011;48119;53.218;6.576;2023-04-25T10:52:10;8.52;;;1.65;;
58553;SDS011;48119;53.218;6.576;2023-04-25T10:54:51;8.07;;;1.52;;
58553;SDS011;48119;53.218;6.576;2023-04-25T10:57:31;3.83;;;1.30;;
58553;SDS011;48119;53.218;6.576;2023-04-25T11:00:05;4.93;;;1.33;;
58553;SDS011;48119;53.218;6.576;2023-04-25T11:02:44;6.10;;;1.65;;
58553;SDS011;48119;53.218;6.576;2023-04-25T11:05:36;4.35;;;1.45;;
58553;SDS011;48119;53.218;6.576;2023-04-25T11:08:02;4.05;;;1.35;;
58553;SDS011;48119;53.218;6.576;2023-04-25T11:10:35;2.92;;;1.17;;
58553;SDS011;48119;53.218;6.576;2023-04-25T11:13:01;5.32;;;1.80;;
58553;SDS011;48119;53.218;6.576;2023-04-25T11:15:27;4.53;;;1.30;;
58553;SDS011;48119;53.218;6.576;2023-04-25T11:17:54;10.65;;;2.00;;
58553;SDS011;48119;53.218;6.576;2023-04-25T11:20:21;5.90;;;1.75;;
58553;SDS011;48119;53.218;6.576;2023-04-25T11:22:51;4.10;;;1.10;;
58553;SDS011;48119;53.218;6.576;2023-04-25T11:25:17;5.18;;;1.75;;
58553;SDS011;48119;53.218;6.576;2023-04-25T11:27:49;8.60;;;1.90;;
58553;SDS011;48119;53.218;6.576;2023-04-25T11:30:20;4.72;;;1.40;;
58553;SDS011;48119;53.218;6.576;2023-04-25T11:32:47;4.97;;;1.63;;
58553;SDS011;48119;53.218;6.576;2023-04-25T11:35:13;4.45;;;1.55;;
58553;SDS011;48119;53.218;6.576;2023-04-25T11:37:39;5.95;;;1.65;;
58553;SDS011;48119;53.218;6.576;2023-04-25T11:40:11;7.25;;;1.63;;
58553;SDS011;48119;53.218;6.576;2023-04-25T11:42:38;3.63;;;1.67;;
58553;SDS011;48119;53.218;6.576;2023-04-25T11:45:04;6.93;;;1.73;;
58553;SDS011;48119;53.218;6.576;2023-04-25T11:47:31;7.78;;;2.00;;
58553;SDS011;48119;53.218;6.576;2023-04-25T11:49:58;3.72;;;1.23;;
58553;SDS011;48119;53.218;6.576;2023-04-25T11:52:38;6.60;;;1.42;;
58553;SDS011;48119;53.218;6.576;2023-04-25T11:55:18;8.43;;;2.35;;
58553;SDS011;48119;53.218;6.576;2023-04-25T11:57:46;5.35;;;1.42;;
58553;SDS011;48119;53.218;6.576;2023-04-25T12:00:14;9.00;;;2.03;;
58553;SDS011;48119;53.218;6.576;2023-04-25T12:02:45;5.55;;;1.20;;
58553;SDS011;48119;53.218;6.576;2023-04-25T12:05:23;13.73;;;2.40;;
58553;SDS011;48119;53.218;6.576;2023-04-25T12:07:51;9.25;;;1.65;;
58553;SDS011;48119;53.218;6.576;2023-04-25T12:10:17;7.75;;;1.80;;
58553;SDS011;48119;53.218;6.576;2023-04-25T12:12:44;6.68;;;1.48;;
58553;SDS011;48119;53.218;6.576;2023-04-25T12:15:14;5.55;;;1.77;;
58553;SDS011;48119;53.218;6.576;2023-04-25T12:17:48;10.55;;;2.38;;
58553;SDS011;48119;53.218;6.576;2023-04-25T12:20:19;8.27;;;1.80;;
58553;SDS011;48119;53.218;6.576;2023-04-25T12:22:46;5.55;;;1.67;;
58553;SDS011;48119;53.218;6.576;2023-04-25T12:25:33;3.30;;;1.48;;
58553;SDS011;48119;53.218;6.576;2023-04-25T12:33:22;7.90;;;1.63;;
58553;SDS011;48119;53.218;6.576;2023-04-25T12:35:48;6.65;;;1.50;;
58553;SDS011;48119;53.218;6.576;2023-04-25T12:38:27;4.88;;;1.20;;
58553;SDS011;48119;53.218;6.576;2023-04-25T12:40:55;4.15;;;1.38;;
58553;SDS011;48119;53.218;6.576;2023-04-25T12:43:21;9.90;;;1.95;;
58553;SDS011;48119;53.218;6.576;2023-04-25T12:45:47;9.43;;;2.35;;
58553;SDS011;48119;53.218;6.576;2023-04-25T12:48:15;10.70;;;2.20;;
58553;SDS011;48119;53.218;6.576;2023-04-25T12:50:41;9.13;;;1.75;;
58553;SDS011;48119;53.218;6.576;2023-04-25T12:53:07;4.50;;;1.25;;
58553;SDS011;48119;53.218;6.576;2023-04-25T12:55:33;10.10;;;1.92;;
58553;SDS011;48119;53.218;6.576;2023-04-25T12:57:58;5.35;;;1.60;;
58553;SDS011;48119;53.218;6.576;2023-04-25T13:00:24;4.80;;;1.10;;
58553;SDS011;48119;53.218;6.576;2023-04-25T13:02:51;8.35;;;2.22;;
58553;SDS011;48119;53.218;6.576;2023-04-25T13:05:17;7.13;;;2.38;;
58553;SDS011;48119;53.218;6.576;2023-04-25T13:07:43;7.30;;;1.80;;
58553;SDS011;48119;53.218;6.576;2023-04-25T13:10:09;6.18;;;2.15;;
58553;SDS011;48119;53.218;6.576;2023-04-25T13:12:35;6.10;;;1.50;;
58553;SDS011;48119;53.218;6.576;2023-04-25T13:15:01;6.10;;;1.58;;
58553;SDS011;48119;53.218;6.576;2023-04-25T13:17:27;4.53;;;1.48;;
58553;SDS011;48119;53.218;6.576;2023-04-25T13:19:53;7.18;;;2.05;;
58553;SDS011;48119;53.218;6.576;2023-04-25T13:22:19;8.23;;;1.70;;
58553;SDS011;48119;53.218;6.576;2023-04-25T13:24:45;12.93;;;1.70;;
58553;SDS011;48119;53.218;6.576;2023-04-25T13:27:14;8.23;;;2.28;;
58553;SDS011;48119;53.218;6.576;2023-04-25T13:29:40;8.85;;;1.63;;
58553;SDS011;48119;53.218;6.576;2023-04-25T13:32:07;7.72;;;1.88;;
58553;SDS011;48119;53.218;6.576;2023-04-25T13:34:34;9.52;;;1.95;;
58553;SDS011;48119;53.218;6.576;2023-04-25T13:37:00;4.75;;;2.03;;
58553;SDS011;48119;53.218;6.576;2023-04-25T13:39:25;11.50;;;2.38;;
58553;SDS011;48119;53.218;6.576;2023-04-25T13:41:51;9.90;;;1.67;;
58553;SDS011;48119;53.218;6.576;2023-04-25T13:44:17;8.75;;;1.77;;
58553;SDS011;48119;53.218;6.576;2023-04-25T13:46:42;9.02;;;2.22;;
58553;SDS011;48119;53.218;6.576;2023-04-25T13:49:09;7.13;;;1.73;;
58553;SDS011;48119;53.218;6.576;2023-04-25T13:51:35;9.25;;;2.78;;
58553;SDS011;48119;53.218;6.576;2023-04-25T13:54:00;6.85;;;1.73;;
58553;SDS011;48119;53.218;6.576;2023-04-25T13:56:26;4.82;;;1.48;;
58553;SDS011;48119;53.218;6.576;2023-04-25T13:58:52;7.75;;;1.40;;
58553;SDS011;48119;53.218;6.576;2023-04-25T14:01:18;5.78;;;1.73;;
58553;SDS011;48119;53.218;6.576;2023-04-25T14:03:44;4.32;;;1.73;;
58553;SDS011;48119;53.218;6.576;2023-04-25T14:06:10;4.90;;;1.25;;
58553;SDS011;48119;53.218;6.576;2023-04-25T14:08:37;8.05;;;1.80;;
58553;SDS011;48119;53.218;6.576;2023-04-25T14:11:04;9.05;;;1.80;;
58553;SDS011;48119;53.218;6.576;2023-04-25T14:13:29;7.57;;;1.60;;
58553;SDS011;48119;53.218;6.576;2023-04-25T14:15:55;8.15;;;1.73;;
58553;SDS011;48119;53.218;6.576;2023-04-25T14:18:21;12.52;;;2.20;;
58553;SDS011;48119;53.218;6.576;2023-04-25T14:20:47;8.70;;;1.92;;
58553;SDS011;48119;53.218;6.576;2023-04-25T14:23:13;6.95;;;2.38;;
58553;SDS011;48119;53.218;6.576;2023-04-25T14:25:39;7.68;;;2.33;;
58553;SDS011;48119;53.218;6.576;2023-04-25T14:28:07;10.02;;;3.58;;
58553;SDS011;48119;53.218;6.576;2023-04-25T14:30:33;8.63;;;2.85;;
58553;SDS011;48119;53.218;6.576;2023-04-25T14:32:59;5.72;;;1.80;;
58553;SDS011;48119;53.218;6.576;2023-04-25T14:35:25;4.32;;;1.75;;
58553;SDS011;48119;53.218;6.576;2023-04-25T14:37:52;7.50;;;2.00;;
58553;SDS011;48119;53.218;6.576;2023-04-25T14:40:18;5.93;;;1.75;;
58553;SDS011;48119;53.218;6.576;2023-04-25T14:42:48;5.28;;;1.40;;
58553;SDS011;48119;53.218;6.576;2023-04-25T14:45:14;7.68;;;1.92;;
58553;SDS011;48119;53.218;6.576;2023-04-25T14:47:39;6.72;;;1.75;;
58553;SDS011;48119;53.218;6.576;2023-04-25T14:50:06;4.22;;;1.20;;
58553;SDS011;48119;53.218;6.576;2023-04-25T14:52:33;6.95;;;1.58;;
58553;SDS011;48119;53.218;6.576;2023-04-25T14:54:59;7.35;;;1.88;;
58553;SDS011;48119;53.218;6.576;2023-04-25T14:57:29;5.93;;;1.52;;
58553;SDS011;48119;53.218;6.576;2023-04-25T14:59:56;6.63;;;1.13;;
58553;SDS011;48119;53.218;6.576;2023-04-25T15:02:23;8.23;;;2.30;;